createdAt,value
2022-10-21T00:01:24.447Z,99939.34
2022-10-21T00:03:54.616Z,99944.06
2022-10-21T00:06:25.132Z,99948.53
2022-10-21T00:08:55.228Z,99939.06
2022-10-21T00:11:25.938Z,99940.28
2022-10-21T00:13:58.152Z,99919.56
2022-10-21T00:16:28.687Z,99935.31
2022-10-21T00:18:58.955Z,99913.28
2022-10-21T00:21:29.506Z,99904.69
2022-10-21T00:23:59.575Z,99905.44
2022-10-21T00:26:31.243Z,99900.00
2022-10-21T00:29:02.754Z,99895.44
2022-10-21T00:31:32.550Z,99889.66
2022-10-21T00:34:05.073Z,99913.69
2022-10-21T00:36:35.131Z,99921.47
2022-10-21T00:39:07.775Z,99907.41
2022-10-21T00:41:37.897Z,99908.25
2022-10-21T00:44:12.385Z,99907.56
2022-10-21T00:47:07.821Z,99909.88
2022-10-21T00:49:51.059Z,99906.84
2022-10-21T00:52:24.911Z,99913.38
2022-10-21T00:54:58.146Z,99918.81
2022-10-21T00:57:30.546Z,99922.75
2022-10-21T01:00:03.940Z,99919.13
2022-10-21T01:02:34.077Z,99904.03
2022-10-21T01:05:06.067Z,99895.78
2022-10-21T01:07:40.288Z,99892.41
2022-10-21T01:10:11.815Z,99882.97
2022-10-21T01:12:59.530Z,99897.88
2022-10-21T01:15:35.401Z,99906.22
2022-10-21T01:18:22.554Z,99906.94
2022-10-21T01:21:12.263Z,99922.53
2022-10-21T01:23:51.316Z,99931.94
2022-10-21T01:26:55.504Z,99916.41
2022-10-21T01:29:52.724Z,99918.75
2022-10-21T01:32:38.580Z,99927.63
2022-10-21T01:35:22.200Z,99928.13
2022-10-21T01:38:18.306Z,99923.09
2022-10-21T01:41:26.662Z,99904.72
2022-10-21T01:44:20.418Z,99918.97
2022-10-21T01:47:12.952Z,99920.81
2022-10-21T01:49:50.821Z,99911.81
2022-10-21T01:52:21.151Z,99903.44
2022-10-21T01:55:00.162Z,99883.06
2022-10-21T01:57:34.715Z,99868.13
2022-10-21T02:00:08.050Z,99873.69
2022-10-21T02:02:43.834Z,99885.16
2022-10-21T02:05:24.098Z,99890.66
2022-10-21T02:07:54.140Z,99882.47
2022-10-21T02:10:27.658Z,99876.16
2022-10-21T02:13:02.330Z,99862.25
2022-10-21T02:15:35.041Z,99860.38
2022-10-21T02:18:11.858Z,99869.75
2022-10-21T02:20:44.769Z,99862.59
2022-10-21T02:23:18.304Z,99863.94
2022-10-21T02:25:50.752Z,99860.44
2022-10-21T02:28:21.654Z,99868.25
2022-10-21T02:31:05.010Z,99867.22
2022-10-21T02:33:44.077Z,99875.91
2022-10-21T02:36:20.133Z,99878.28
2022-10-21T02:38:55.580Z,99870.34
2022-10-21T02:41:28.878Z,99864.25
2022-10-21T02:44:02.270Z,99869.22
2022-10-21T02:46:42.203Z,99863.34
2022-10-21T02:49:12.362Z,99862.91
2022-10-21T02:51:44.536Z,99853.66
2022-10-21T02:54:14.962Z,99860.16
2022-10-21T02:56:45.509Z,99860.13
2022-10-21T02:59:15.644Z,99861.56
2022-10-21T03:01:46.184Z,99863.03
2022-10-21T03:04:16.195Z,99873.34
2022-10-21T03:06:46.777Z,99869.28
2022-10-21T03:09:16.755Z,99860.13
2022-10-21T03:11:46.558Z,99857.22
2022-10-21T03:14:17.093Z,99866.19
2022-10-21T03:16:47.174Z,99867.78
2022-10-21T03:19:17.578Z,99864.88
2022-10-21T03:21:47.577Z,99860.44
2022-10-21T03:24:28.093Z,99873.78
2022-10-21T03:26:59.072Z,99865.03
2022-10-21T03:29:29.595Z,99872.22
2022-10-21T03:31:59.687Z,99864.00
2022-10-21T03:34:31.683Z,99866.25
2022-10-21T03:37:01.732Z,99858.78
2022-10-21T03:39:32.138Z,99851.31
2022-10-21T03:42:02.229Z,99849.13
2022-10-21T03:44:32.742Z,99850.41
2022-10-21T03:47:02.811Z,99853.81
2022-10-21T03:49:32.309Z,99848.13
2022-10-21T03:52:03.971Z,99851.06
2022-10-21T03:54:34.149Z,99846.63
2022-10-21T03:57:04.707Z,99853.75
2022-10-21T03:59:34.703Z,99856.28
2022-10-21T04:02:05.363Z,99849.63
2022-10-21T04:04:36.517Z,99854.09
2022-10-21T04:07:07.452Z,99839.31
2022-10-21T04:09:38.118Z,99839.53
2022-10-21T04:12:08.590Z,99832.72
2022-10-21T04:14:38.656Z,99829.00
2022-10-21T04:17:09.137Z,99835.75
2022-10-21T04:19:39.254Z,99828.19
2022-10-21T04:22:09.726Z,99832.66
2022-10-21T04:24:39.847Z,99831.59
2022-10-21T04:27:10.318Z,99813.56
2022-10-21T04:29:40.417Z,99817.50
2022-10-21T04:32:10.901Z,99820.00
2022-10-21T04:34:40.165Z,99817.56
2022-10-21T04:37:10.225Z,99813.22
2022-10-21T04:39:40.662Z,99809.81
2022-10-21T04:42:10.702Z,99818.47
2022-10-21T04:44:41.176Z,99802.31
2022-10-21T04:47:11.288Z,99808.81
2022-10-21T04:49:41.852Z,99807.75
2022-10-21T04:52:12.201Z,99799.50
2022-10-21T04:54:44.750Z,99802.97
2022-10-21T04:57:15.873Z,99786.59
2022-10-21T04:59:46.185Z,99778.97
2022-10-21T05:02:15.719Z,99785.22
2022-10-21T05:04:45.424Z,99786.72
2022-10-21T05:07:16.021Z,99784.53
2022-10-21T05:09:45.988Z,99776.31
2022-10-21T05:12:16.346Z,99764.63
2022-10-21T05:14:45.782Z,99764.22
2022-10-21T05:17:15.459Z,99763.03
2022-10-21T05:19:45.852Z,99756.00
2022-10-21T05:22:15.636Z,99744.31
2022-10-21T05:24:46.035Z,99739.25
2022-10-21T05:27:15.999Z,99754.03
2022-10-21T05:29:46.520Z,99742.09
2022-10-21T05:32:16.482Z,99729.53
2022-10-21T05:34:46.930Z,99738.34
2022-10-21T05:37:16.692Z,99738.97
2022-10-21T05:39:47.199Z,99733.06
2022-10-21T05:42:17.314Z,99733.25
2022-10-21T05:44:47.751Z,99731.00
2022-10-21T05:47:17.856Z,99728.03
2022-10-21T05:49:48.474Z,99701.16
2022-10-21T05:52:18.413Z,99721.03
2022-10-21T05:54:48.804Z,99712.63
2022-10-21T05:57:18.785Z,99718.31
2022-10-21T05:59:48.677Z,99708.69
2022-10-21T06:02:19.150Z,99708.56
2022-10-21T06:04:49.073Z,99713.97
2022-10-21T06:07:19.478Z,99712.13
2022-10-21T06:09:54.688Z,99708.31
2022-10-21T06:12:25.586Z,99702.84
2022-10-21T06:14:55.214Z,99704.25
2022-10-21T06:17:25.248Z,99705.22
2022-10-21T06:19:55.570Z,99699.13
2022-10-21T06:22:25.031Z,99712.44
2022-10-21T06:24:54.969Z,99694.06
2022-10-21T06:27:25.276Z,99690.88
2022-10-21T06:29:54.750Z,99696.97
2022-10-21T06:32:24.467Z,99682.03
2022-10-21T06:34:55.494Z,99692.88
2022-10-21T06:37:25.449Z,99698.59
2022-10-21T06:39:55.824Z,99698.13
2022-10-21T06:42:25.637Z,99699.31
2022-10-21T06:44:57.947Z,99706.47
2022-10-21T06:47:30.189Z,99707.00
2022-10-21T06:50:05.229Z,99705.69
2022-10-21T06:52:37.639Z,99714.44
2022-10-21T06:55:08.833Z,99715.88
2022-10-21T06:57:39.122Z,99722.81
2022-10-21T07:00:10.432Z,99727.13
2022-10-21T07:02:40.908Z,99715.72
2022-10-21T07:05:13.567Z,99722.75
2022-10-21T07:07:43.763Z,99713.91
2022-10-21T07:10:16.325Z,99719.97
2022-10-21T07:12:47.917Z,99720.31
2022-10-21T07:15:18.340Z,99727.56
2022-10-21T07:17:48.286Z,99727.16
2022-10-21T07:20:18.713Z,99724.91
2022-10-21T07:22:48.621Z,99716.47
2022-10-21T07:25:19.121Z,99711.97
2022-10-21T07:27:50.786Z,99727.25
2022-10-21T07:30:21.235Z,99729.84
2022-10-21T07:32:52.101Z,99730.72
2022-10-21T07:35:22.475Z,99753.44
2022-10-21T07:37:52.478Z,99749.91
2022-10-21T07:40:23.116Z,99763.53
2022-10-21T07:42:53.173Z,99760.47
2022-10-21T07:45:23.730Z,99771.16
2022-10-21T07:47:53.735Z,99775.56
2022-10-21T07:50:24.124Z,99774.06
2022-10-21T07:53:01.312Z,99779.91
2022-10-21T07:55:39.104Z,99787.59
2022-10-21T07:58:08.538Z,99784.84
2022-10-21T08:00:39.299Z,99786.91
2022-10-21T08:03:09.722Z,99789.25
2022-10-21T08:05:42.424Z,99799.75
2022-10-21T08:08:12.810Z,99807.16
2022-10-21T08:10:43.532Z,99804.75
2022-10-21T08:13:13.975Z,99812.28
2022-10-21T08:15:48.382Z,99817.94
2022-10-21T08:18:19.653Z,99816.03
2022-10-21T08:20:51.135Z,99822.56
2022-10-21T08:23:23.476Z,99831.16
2022-10-21T08:25:59.152Z,99831.75
2022-10-21T08:28:31.505Z,99833.00
2022-10-21T08:31:21.917Z,99841.72
2022-10-21T08:33:52.479Z,99842.78
2022-10-21T08:36:26.260Z,99846.03
2022-10-21T08:39:00.115Z,99843.53
2022-10-21T08:41:33.096Z,99857.59
2022-10-21T08:44:03.520Z,99862.56
2022-10-21T08:46:53.254Z,99867.31
2022-10-21T08:49:32.090Z,99866.06
2022-10-21T08:52:27.591Z,99876.97
2022-10-21T08:55:01.947Z,99879.28
2022-10-21T08:57:36.270Z,99885.06
2022-10-21T09:00:24.341Z,99891.66
2022-10-21T09:03:14.562Z,99890.34
2022-10-21T09:06:02.669Z,99899.22
2022-10-21T09:08:45.132Z,99907.09
2022-10-21T09:11:35.554Z,99911.69
2022-10-21T09:14:11.137Z,99911.91
2022-10-21T09:17:08.407Z,99909.31
2022-10-21T09:19:54.887Z,99919.13
2022-10-21T09:22:50.333Z,99928.22
2022-10-21T09:25:36.641Z,99926.63
2022-10-21T09:28:17.517Z,99926.75
2022-10-21T09:30:48.284Z,99936.69
2022-10-21T09:33:30.109Z,99931.59
2022-10-21T09:36:14.479Z,99931.03
2022-10-21T09:38:47.239Z,99939.16
2022-10-21T09:41:24.405Z,99942.25
2022-10-21T09:43:57.223Z,99939.19
2022-10-21T09:46:27.373Z,99950.94
2022-10-21T09:49:41.997Z,99947.38
2022-10-21T09:51:53.427Z,99937.88
2022-10-21T09:54:27.021Z,99918.66
2022-10-21T09:57:15.757Z,99949.50
2022-10-21T09:59:54.593Z,99958.03
2022-10-21T10:02:34.996Z,99963.22
2022-10-21T10:05:45.060Z,99971.00
2022-10-21T10:08:26.458Z,99965.03
2022-10-21T10:11:18.772Z,99968.16
2022-10-21T10:13:54.056Z,99968.69
2022-10-21T10:16:30.068Z,99962.44
2022-10-21T10:19:18.581Z,99962.50
2022-10-21T10:22:10.310Z,99959.88
2022-10-21T10:24:41.903Z,99959.94
2022-10-21T10:27:22.048Z,99959.22
2022-10-21T10:29:57.865Z,99969.44
2022-10-21T10:32:33.403Z,99957.69
2022-10-21T10:35:07.602Z,99957.75
2022-10-21T10:37:39.525Z,99953.94
2022-10-21T10:40:10.982Z,99949.81
2022-10-21T10:42:47.066Z,99953.09
2022-10-21T10:45:21.501Z,99939.59
2022-10-21T10:48:00.896Z,99953.16
2022-10-21T10:50:40.015Z,99943.31
2022-10-21T10:53:31.199Z,99944.03
2022-10-21T10:56:30.004Z,99942.03
2022-10-21T10:59:36.902Z,99939.19
2022-10-21T11:02:11.114Z,99940.78
2022-10-21T11:04:43.580Z,99935.56
2022-10-21T11:07:17.339Z,99953.19
2022-10-21T11:09:54.307Z,99953.41
2022-10-21T11:12:28.218Z,99941.41
2022-10-21T11:15:00.666Z,99945.38
2022-10-21T11:17:42.422Z,99950.91
2022-10-21T11:20:30.080Z,99945.66
2022-10-21T11:23:36.131Z,99929.34
2022-10-21T11:26:29.287Z,99945.91
2022-10-21T11:29:25.535Z,99930.63
2022-10-21T11:32:32.241Z,99932.78
2022-10-21T11:35:25.952Z,99927.66
2022-10-21T11:38:17.298Z,99932.72
2022-10-21T11:41:27.190Z,99935.41
2022-10-21T11:44:04.790Z,99935.19
2022-10-21T11:47:31.523Z,99928.56
2022-10-21T11:50:42.687Z,99928.19
2022-10-21T11:53:16.829Z,99922.31
2022-10-21T11:56:09.413Z,99928.44
2022-10-21T11:58:57.507Z,99935.50
2022-10-21T12:01:47.942Z,99929.13
2022-10-21T12:04:21.672Z,99937.88
2022-10-21T12:07:11.335Z,99925.94
2022-10-21T12:09:45.714Z,99934.03
2022-10-21T12:12:20.806Z,99927.09
2022-10-21T12:14:51.376Z,99918.66
2022-10-21T12:17:23.616Z,99929.19
2022-10-21T12:20:08.270Z,99934.09
2022-10-21T12:22:40.162Z,99926.78
2022-10-21T12:25:29.181Z,99934.28
2022-10-21T12:28:28.434Z,99931.91
2022-10-21T12:31:25.500Z,99948.53
2022-10-21T12:33:56.343Z,99940.09
2022-10-21T12:36:26.904Z,99945.66
2022-10-21T12:38:59.008Z,99951.44
2022-10-21T12:41:35.312Z,99943.22
2022-10-21T12:44:09.035Z,99945.03
2022-10-21T12:46:42.901Z,99938.50
2022-10-21T12:49:18.868Z,99947.09
2022-10-21T12:51:57.091Z,99947.25
2022-10-21T12:54:39.267Z,99951.94
2022-10-21T12:57:13.098Z,99941.59
2022-10-21T12:59:44.777Z,99949.09
2022-10-21T13:02:29.344Z,99960.63
2022-10-21T13:05:00.095Z,99954.94
2022-10-21T13:07:33.360Z,99947.72
2022-10-21T13:10:03.660Z,99959.72
2022-10-21T13:12:35.167Z,99962.56
2022-10-21T13:15:25.571Z,99963.78
2022-10-21T13:17:59.336Z,99962.16
2022-10-21T13:20:35.167Z,99963.66
2022-10-21T13:23:32.811Z,99951.19
2022-10-21T13:26:13.912Z,99962.06
2022-10-21T13:28:56.904Z,99967.41
2022-10-21T13:31:27.412Z,99959.28
2022-10-21T13:33:58.111Z,99972.59
2022-10-21T13:36:42.161Z,99969.59
2022-10-21T13:39:24.295Z,99962.31
2022-10-21T13:42:06.687Z,99964.66
2022-10-21T13:44:42.773Z,99955.63
2022-10-21T13:47:31.551Z,99963.97
2022-10-21T13:50:29.635Z,99968.31
2022-10-21T13:53:02.720Z,99958.91
2022-10-21T13:55:33.562Z,99963.47
2022-10-21T13:58:04.036Z,99965.31
2022-10-21T14:00:34.721Z,99963.63
2022-10-21T14:03:07.201Z,99967.97
2022-10-21T14:05:47.567Z,99971.72
2022-10-21T14:08:29.120Z,99967.72
2022-10-21T14:11:06.551Z,99973.63
2022-10-21T14:13:38.990Z,99969.53
2022-10-21T14:16:10.967Z,99959.56
2022-10-21T14:18:49.126Z,99969.19
2022-10-21T14:21:27.580Z,99963.28
2022-10-21T14:23:59.416Z,99962.25
2022-10-21T14:26:33.850Z,99972.69
2022-10-21T14:29:05.282Z,99964.72
2022-10-21T14:31:35.679Z,99960.78
2022-10-21T14:34:08.377Z,99952.34
2022-10-21T14:37:10.932Z,99950.44
2022-10-21T14:39:42.558Z,99940.78
2022-10-21T14:42:21.701Z,99936.00
2022-10-21T14:44:56.038Z,99935.91
2022-10-21T14:47:28.184Z,99936.63
2022-10-21T14:50:02.119Z,99931.34
2022-10-21T14:52:40.191Z,99930.31
2022-10-21T14:55:16.213Z,99928.56
2022-10-21T14:57:54.480Z,99927.44
2022-10-21T15:00:44.198Z,99916.50
2022-10-21T15:03:15.350Z,99916.59
2022-10-21T15:05:49.352Z,99923.94
2022-10-21T15:08:22.585Z,99915.47
2022-10-21T15:10:58.999Z,99899.44
2022-10-21T15:13:29.546Z,99895.34
2022-10-21T15:16:01.453Z,99895.34
2022-10-21T15:18:41.886Z,99876.84
2022-10-21T15:21:16.603Z,99889.97
2022-10-21T15:23:58.850Z,99889.22
2022-10-21T15:26:36.852Z,99873.69
2022-10-21T15:29:20.651Z,99872.47
2022-10-21T15:31:51.034Z,99869.94
2022-10-21T15:34:21.635Z,99868.09
2022-10-21T15:36:52.150Z,99872.41
2022-10-21T15:39:22.166Z,99876.56
2022-10-21T15:41:57.509Z,99875.31
2022-10-21T15:44:32.717Z,99861.34
2022-10-21T15:47:06.645Z,99862.84
2022-10-21T15:49:42.279Z,99854.25
2022-10-21T15:52:13.146Z,99838.59
2022-10-21T15:54:43.950Z,99859.16
2022-10-21T15:57:22.721Z,99862.56
2022-10-21T15:59:52.756Z,99858.16
2022-10-21T16:02:23.129Z,99854.78
2022-10-21T16:04:54.634Z,99843.44
2022-10-21T16:07:37.088Z,99848.97
2022-10-21T16:10:30.678Z,99845.84
2022-10-21T16:13:01.289Z,99846.91
2022-10-21T16:15:31.796Z,99839.75
2022-10-21T16:18:02.229Z,99845.31
2022-10-21T16:20:34.663Z,99844.00
2022-10-21T16:23:05.771Z,99838.66
2022-10-21T16:25:36.209Z,99840.56
2022-10-21T16:28:20.630Z,99836.94
2022-10-21T16:30:54.690Z,99824.00
2022-10-21T16:33:25.039Z,99830.13
2022-10-21T16:35:55.314Z,99827.44
2022-10-21T16:38:25.661Z,99815.22
2022-10-21T16:40:55.890Z,99820.56
2022-10-21T16:43:26.329Z,99818.16
2022-10-21T16:45:56.541Z,99835.53
2022-10-21T16:48:29.774Z,99831.25
2022-10-21T16:51:00.008Z,99833.72
2022-10-21T16:53:30.325Z,99841.59
2022-10-21T16:56:00.664Z,99827.91
2022-10-21T16:58:31.438Z,99830.66
2022-10-21T17:01:02.969Z,99831.69
2022-10-21T17:03:35.601Z,99831.47
2022-10-21T17:06:05.999Z,99823.78
2022-10-21T17:08:36.371Z,99828.19
2022-10-21T17:11:09.020Z,99819.94
2022-10-21T17:13:39.328Z,99813.75
2022-10-21T17:16:09.927Z,99817.09
2022-10-21T17:18:41.450Z,99814.09
2022-10-21T17:21:26.127Z,99799.06
2022-10-21T17:23:57.833Z,99799.28
2022-10-21T17:26:31.587Z,99787.94
2022-10-21T17:29:05.067Z,99781.84
2022-10-21T17:31:36.109Z,99783.81
2022-10-21T17:34:08.643Z,99785.16
2022-10-21T17:36:39.477Z,99785.53
2022-10-21T17:39:09.825Z,99786.53
2022-10-21T17:41:39.738Z,99788.09
2022-10-21T17:44:13.248Z,99796.63
2022-10-21T17:46:43.849Z,99795.59
2022-10-21T17:49:16.195Z,99800.53
2022-10-21T17:51:50.630Z,99803.84
2022-10-21T17:54:25.952Z,99797.47
2022-10-21T17:57:00.237Z,99791.53
2022-10-21T17:59:33.799Z,99786.47
2022-10-21T18:02:04.362Z,99789.34
2022-10-21T18:04:35.409Z,99784.38
2022-10-21T18:07:09.341Z,99778.03
2022-10-21T18:09:41.084Z,99782.13
2022-10-21T18:12:15.058Z,99776.78
2022-10-21T18:14:45.749Z,99776.63
2022-10-21T18:17:17.155Z,99772.66
2022-10-21T18:19:48.428Z,99776.00
2022-10-21T18:22:18.660Z,99768.75
2022-10-21T18:24:49.027Z,99771.53
2022-10-21T18:27:19.421Z,99773.47
2022-10-21T18:29:50.325Z,99783.75
2022-10-21T18:32:20.525Z,99790.81
2022-10-21T18:34:52.078Z,99794.34
2022-10-21T18:37:22.703Z,99795.50
2022-10-21T18:39:56.668Z,99801.59
2022-10-21T18:42:29.884Z,99809.72
2022-10-21T18:45:00.226Z,99801.38
2022-10-21T18:47:30.530Z,99791.38
2022-10-21T18:50:00.975Z,99786.09
2022-10-21T18:52:31.200Z,99786.66
2022-10-21T18:55:03.152Z,99785.06
2022-10-21T18:57:33.453Z,99785.00
2022-10-21T19:00:03.853Z,99789.09
2022-10-21T19:02:34.464Z,99785.28
2022-10-21T19:05:06.121Z,99787.13
2022-10-21T19:07:36.415Z,99793.94
2022-10-21T19:10:07.431Z,99795.59
2022-10-21T19:12:37.761Z,99797.72
2022-10-21T19:15:12.167Z,99808.59
2022-10-21T19:17:43.028Z,99797.28
2022-10-21T19:20:14.817Z,99805.78
2022-10-21T19:22:45.068Z,99821.09
2022-10-21T19:25:15.968Z,99819.78
2022-10-21T19:27:49.214Z,99815.28
2022-10-21T19:30:19.869Z,99817.91
2022-10-21T19:32:50.067Z,99820.25
2022-10-21T19:35:20.930Z,99833.66
2022-10-21T19:37:51.409Z,99832.31
2022-10-21T19:40:22.332Z,99827.16
2022-10-21T19:42:52.675Z,99824.63
2022-10-21T19:45:26.054Z,99830.31
2022-10-21T19:47:56.259Z,99816.50
2022-10-21T19:50:26.804Z,99809.16
2022-10-21T19:52:57.192Z,99800.44
2022-10-21T19:55:28.065Z,99806.81
2022-10-21T19:57:58.984Z,99817.94
2022-10-21T20:00:32.675Z,99822.06
2022-10-21T20:03:03.611Z,99824.88
2022-10-21T20:05:38.043Z,99847.44
2022-10-21T20:08:09.346Z,99846.75
2022-10-21T20:10:39.966Z,99838.53
2022-10-21T20:13:12.678Z,99852.00
2022-10-21T20:15:49.454Z,99842.31
2022-10-21T20:18:22.294Z,99849.59
2022-10-21T20:20:56.303Z,99857.31
2022-10-21T20:23:27.623Z,99861.84
2022-10-21T20:26:00.743Z,99858.59
2022-10-21T20:28:31.796Z,99850.63
2022-10-21T20:31:28.709Z,99836.16
2022-10-21T20:33:59.389Z,99843.06
2022-10-21T20:36:33.524Z,99857.94
2022-10-21T20:39:04.722Z,99857.59
2022-10-21T20:41:38.520Z,99839.13
2022-10-21T20:44:12.777Z,99850.31
2022-10-21T20:46:43.824Z,99866.97
2022-10-21T20:49:14.794Z,99875.50
2022-10-21T20:51:47.337Z,99906.56
2022-10-21T20:54:19.795Z,99924.44
2022-10-21T20:56:51.185Z,99932.91
2022-10-21T20:59:21.474Z,99957.44
2022-10-21T21:01:52.203Z,99991.94
2022-10-21T21:04:24.784Z,100021.94
2022-10-21T21:06:55.949Z,99999.88
2022-10-21T21:09:50.047Z,99875.78
2022-10-21T21:12:17.730Z,100010.22
2022-10-21T21:14:48.986Z,100108.78
2022-10-21T21:17:19.783Z,100157.94
2022-10-21T21:19:50.108Z,100146.75
2022-10-21T21:22:24.984Z,100161.97
2022-10-21T21:24:55.167Z,100171.94
2022-10-21T21:27:29.487Z,100165.97
2022-10-21T21:30:00.728Z,100161.56
2022-10-21T21:32:31.125Z,100151.31
2022-10-21T21:35:05.035Z,100138.97
2022-10-21T21:37:46.488Z,100121.13
2022-10-21T21:40:19.327Z,100113.59
2022-10-21T21:42:49.716Z,100123.44
2022-10-21T21:45:19.905Z,100130.69
2022-10-21T21:47:50.227Z,100153.44
2022-10-21T21:50:23.843Z,100158.56
2022-10-21T21:52:54.194Z,100175.09
2022-10-21T21:55:24.980Z,100177.22
2022-10-21T21:57:55.293Z,100177.53
2022-10-21T22:00:25.730Z,100161.56
2022-10-21T22:02:56.118Z,100174.56
2022-10-21T22:05:27.202Z,100193.75
2022-10-21T22:07:57.635Z,100204.41
2022-10-21T22:10:28.424Z,100217.31
2022-10-21T22:12:58.766Z,100227.22
2022-10-21T22:15:46.955Z,100239.78
2022-10-21T22:18:19.227Z,100246.09
2022-10-21T22:20:49.454Z,100251.81
2022-10-21T22:23:21.611Z,100243.88
2022-10-21T22:25:51.929Z,100251.50
2022-10-21T22:28:22.779Z,100260.47
2022-10-21T22:31:01.933Z,100267.78
2022-10-21T22:33:35.343Z,100256.69
2022-10-21T22:36:06.714Z,100257.13
2022-10-21T22:38:37.575Z,100253.56
2022-10-21T22:41:12.299Z,100259.22
2022-10-21T22:43:44.006Z,100272.75
2022-10-21T22:46:33.835Z,100283.19
2022-10-21T22:49:06.478Z,100295.72
2022-10-21T22:51:36.766Z,100295.97
2022-10-21T22:54:29.595Z,100304.41
2022-10-21T22:57:01.770Z,100313.06
2022-10-21T22:59:32.566Z,100320.78
2022-10-21T23:02:02.758Z,100333.22
2022-10-21T23:04:33.498Z,100329.66
2022-10-21T23:07:04.286Z,100339.22
2022-10-21T23:09:34.890Z,100335.69
2022-10-21T23:12:04.793Z,100340.59
2022-10-21T23:14:35.002Z,100345.41
2022-10-21T23:17:05.743Z,100356.88
2022-10-21T23:19:36.008Z,100357.50
2022-10-21T23:22:07.368Z,100366.66
2022-10-21T23:24:37.754Z,100367.56
2022-10-21T23:27:08.372Z,100379.22
2022-10-21T23:29:40.094Z,100382.66
2022-10-21T23:32:11.470Z,100387.53
2022-10-21T23:34:41.908Z,100393.06
2022-10-21T23:37:12.642Z,100410.94
2022-10-21T23:39:43.040Z,100407.44
2022-10-21T23:42:13.986Z,100415.66
2022-10-21T23:44:44.458Z,100419.75
2022-10-21T23:47:15.131Z,100414.97
2022-10-21T23:49:45.400Z,100424.34
2022-10-21T23:52:16.080Z,100432.28
2022-10-21T23:54:46.436Z,100434.97
2022-10-21T23:57:18.171Z,100432.63
2022-10-21T23:59:48.350Z,100434.00
